createdAt,value
2018-07-26T00:03:45.936Z,22.10
2018-07-26T00:08:40.466Z,22.00
2018-07-26T00:13:35.069Z,22.00
2018-07-26T00:18:29.605Z,21.90
2018-07-26T00:23:24.161Z,21.90
2018-07-26T00:28:18.731Z,21.80
2018-07-26T00:33:13.326Z,21.70
2018-07-26T00:38:07.900Z,21.60
2018-07-26T00:43:02.408Z,21.50
2018-07-26T00:47:57.005Z,21.50
2018-07-26T00:52:51.581Z,21.40
2018-07-26T00:57:46.146Z,21.40
2018-07-26T01:02:40.681Z,21.20
2018-07-26T01:07:35.249Z,21.20
2018-07-26T01:12:29.838Z,21.10
2018-07-26T01:17:24.552Z,21.10
2018-07-26T01:22:19.186Z,21.00
2018-07-26T01:27:14.139Z,21.00
2018-07-26T01:32:08.712Z,20.90
2018-07-26T01:37:03.280Z,21.00
2018-07-26T01:41:57.893Z,20.90
2018-07-26T01:46:52.496Z,20.80
2018-07-26T01:51:47.128Z,20.80
2018-07-26T01:56:41.686Z,20.80
2018-07-26T02:01:36.271Z,20.70
2018-07-26T02:06:30.789Z,20.70
2018-07-26T02:11:25.424Z,20.70
2018-07-26T02:16:20.072Z,20.50
2018-07-26T02:21:14.696Z,20.50
2018-07-26T02:26:09.503Z,20.40
2018-07-26T02:31:04.138Z,20.30
2018-07-26T02:35:58.631Z,20.30
2018-07-26T02:45:47.627Z,20.20
2018-07-26T02:55:36.417Z,20.10
2018-07-26T03:00:31.034Z,20.10
2018-07-26T03:05:25.566Z,20.00
2018-07-26T03:10:20.179Z,20.00
2018-07-26T03:15:14.804Z,20.00
2018-07-26T03:20:09.404Z,20.00
2018-07-26T03:25:04.021Z,19.90
2018-07-26T03:29:58.609Z,19.90
2018-07-26T03:34:53.144Z,19.80
2018-07-26T03:39:47.684Z,19.80
2018-07-26T03:44:42.258Z,19.80
2018-07-26T03:49:36.857Z,19.80
2018-07-26T03:54:31.450Z,19.70
2018-07-26T03:59:26.585Z,19.70
2018-07-26T04:04:21.092Z,19.60
2018-07-26T04:09:16.294Z,19.60
2018-07-26T04:14:11.031Z,19.70
2018-07-26T04:19:05.720Z,19.90
2018-07-26T04:24:00.700Z,20.40
2018-07-26T04:28:55.274Z,21.10
2018-07-26T04:33:50.102Z,21.60
2018-07-26T04:38:44.629Z,22.30
2018-07-26T04:43:39.236Z,23.10
2018-07-26T04:48:34.425Z,23.90
2018-07-26T04:58:23.810Z,25.50
2018-07-26T05:03:18.568Z,26.20
2018-07-26T05:08:13.204Z,27.10
2018-07-26T05:13:07.822Z,28.10
2018-07-26T05:18:02.388Z,28.40
2018-07-26T05:22:56.999Z,29.70
2018-07-26T05:27:51.925Z,30.20
2018-07-26T05:32:47.720Z,30.60
2018-07-26T05:37:42.637Z,30.90
2018-07-26T05:42:37.341Z,31.10
2018-07-26T05:47:31.996Z,31.30
2018-07-26T05:52:26.607Z,31.10
2018-07-26T05:57:33.798Z,31.00
2018-07-26T06:02:28.896Z,31.90
2018-07-26T06:12:18.037Z,32.40
2018-07-26T06:17:12.899Z,32.20
2018-07-26T06:22:07.421Z,31.80
2018-07-26T06:27:01.850Z,32.10
2018-07-26T06:31:56.349Z,32.60
2018-07-26T06:36:50.778Z,31.00
2018-07-26T06:41:45.513Z,30.70
2018-07-26T06:51:34.385Z,30.00
2018-07-26T06:56:28.906Z,29.70
2018-07-26T07:01:23.381Z,28.80
2018-07-26T07:06:17.805Z,28.60
2018-07-26T07:11:12.325Z,28.60
2018-07-26T07:16:06.815Z,28.00
2018-07-26T07:21:03.094Z,28.60
2018-07-26T07:25:58.538Z,29.00
2018-07-26T07:36:02.199Z,29.40
2018-07-26T07:40:56.852Z,29.30
2018-07-26T07:45:51.427Z,29.60
2018-07-26T07:50:47.082Z,28.90
2018-07-26T07:55:41.893Z,29.30
2018-07-26T08:00:36.325Z,28.80
2018-07-26T08:05:30.784Z,29.00
2018-07-26T08:10:25.300Z,29.40
2018-07-26T08:15:19.909Z,28.70
2018-07-26T08:20:14.371Z,29.00
2018-07-26T08:25:09.721Z,29.40
2018-07-26T08:30:05.682Z,29.50
2018-07-26T08:35:00.221Z,29.80
2018-07-26T08:39:54.853Z,29.70
2018-07-26T08:44:50.653Z,29.70
2018-07-26T08:49:46.204Z,30.00
2018-07-26T08:54:41.330Z,30.20
2018-07-26T09:04:37.228Z,30.20
2018-07-26T09:09:32.621Z,29.80
2018-07-26T09:14:27.114Z,30.00
2018-07-26T09:24:22.216Z,30.50
2018-07-26T09:29:17.319Z,30.50
2018-07-26T09:34:11.961Z,30.30
2018-07-26T09:39:14.126Z,30.30
2018-07-26T09:44:09.745Z,30.40
2018-07-26T09:49:04.392Z,30.30
2018-07-26T09:53:58.867Z,30.50
2018-07-26T09:58:53.404Z,30.10
2018-07-26T10:03:47.884Z,30.30
2018-07-26T10:08:42.392Z,30.70
2018-07-26T10:13:36.877Z,31.40
2018-07-26T10:18:31.491Z,31.60
2018-07-26T10:23:25.967Z,32.00
2018-07-26T10:28:31.374Z,32.00
2018-07-26T10:33:26.089Z,32.30
2018-07-26T10:38:20.724Z,32.20
2018-07-26T10:43:15.554Z,31.80
2018-07-26T10:48:10.329Z,32.20
2018-07-26T10:53:05.204Z,32.50
2018-07-26T10:58:02.032Z,32.50
2018-07-26T11:03:08.297Z,32.00
2018-07-26T11:08:03.434Z,31.20
2018-07-26T11:12:58.663Z,31.10
2018-07-26T11:17:53.573Z,31.90
2018-07-26T11:22:48.444Z,32.10
2018-07-26T11:27:43.722Z,31.60
2018-07-26T11:32:38.453Z,31.70
2018-07-26T11:37:37.257Z,31.40
2018-07-26T11:42:39.800Z,30.80
2018-07-26T11:47:46.386Z,30.90
2018-07-26T11:52:41.571Z,30.70
2018-07-26T11:57:36.285Z,30.60
2018-07-26T12:24:04.562Z,31.20
2018-07-26T12:29:01.105Z,31.00
2018-07-26T12:33:58.272Z,30.80
2018-07-26T12:38:53.090Z,31.00
2018-07-26T12:43:47.893Z,31.00
2018-07-26T12:48:42.571Z,30.80
2018-07-26T13:09:52.190Z,30.90
2018-07-26T13:14:47.076Z,31.00
2018-07-26T13:19:41.805Z,31.20
2018-07-26T13:24:36.469Z,31.40
2018-07-26T13:29:31.141Z,31.40
2018-07-26T13:34:26.048Z,31.20
2018-07-26T13:39:21.626Z,31.00
2018-07-26T13:44:17.271Z,31.00
2018-07-26T13:49:12.097Z,31.10
2018-07-26T13:54:07.165Z,31.00
2018-07-26T13:59:01.939Z,30.80
2018-07-26T14:03:56.988Z,30.80
2018-07-26T14:08:51.601Z,31.00
2018-07-26T14:13:46.376Z,31.00
2018-07-26T14:18:41.364Z,31.10
2018-07-26T14:23:38.153Z,31.20
2018-07-26T14:28:32.925Z,31.20
2018-07-26T14:33:27.560Z,30.40
2018-07-26T14:38:22.160Z,30.30
2018-07-26T14:43:16.771Z,30.50
2018-07-26T14:48:11.430Z,30.60
2018-07-26T14:53:06.216Z,30.60
2018-07-26T14:58:01.050Z,30.70
2018-07-26T15:02:55.873Z,30.60
2018-07-26T15:07:50.734Z,30.70
2018-07-26T15:12:45.345Z,30.70
2018-07-26T15:17:40.391Z,30.40
2018-07-26T15:22:35.081Z,30.60
2018-07-26T15:27:30.073Z,30.70
2018-07-26T15:32:24.676Z,30.30
2018-07-26T15:37:19.280Z,30.40
2018-07-26T15:42:14.046Z,30.40
2018-07-26T15:47:08.774Z,30.30
2018-07-26T15:52:03.549Z,30.50
2018-07-26T15:56:58.257Z,30.40
2018-07-26T16:01:52.854Z,30.70
2018-07-26T16:06:47.731Z,30.70
2018-07-26T16:11:42.432Z,30.50
2018-07-26T16:16:37.030Z,30.40
2018-07-26T16:21:31.669Z,30.40
2018-07-26T16:26:26.320Z,30.30
2018-07-26T16:31:21.781Z,30.50
2018-07-26T16:36:16.441Z,30.30
2018-07-26T16:41:11.065Z,30.10
2018-07-26T16:46:05.780Z,30.10
2018-07-26T16:51:00.571Z,30.20
2018-07-26T16:55:55.129Z,30.10
2018-07-26T17:00:49.721Z,30.00
2018-07-26T17:05:44.394Z,29.90
2018-07-26T17:10:39.030Z,29.90
2018-07-26T17:15:33.664Z,29.90
2018-07-26T17:20:28.574Z,29.80
2018-07-26T17:25:26.155Z,29.70
2018-07-26T17:30:20.793Z,29.60
2018-07-26T17:35:15.295Z,29.50
2018-07-26T17:40:10.161Z,29.50
2018-07-26T17:45:07.280Z,29.40
2018-07-26T17:50:01.866Z,29.30
2018-07-26T17:54:56.744Z,29.30
2018-07-26T17:59:51.304Z,29.10
2018-07-26T18:04:45.856Z,29.00
2018-07-26T18:14:34.709Z,28.70
2018-07-26T18:19:30.013Z,28.60
2018-07-26T18:24:24.590Z,28.60
2018-07-26T18:29:19.198Z,28.50
2018-07-26T18:34:13.753Z,28.40
2018-07-26T18:39:11.898Z,28.20
2018-07-26T18:44:06.765Z,28.20
2018-07-26T18:49:01.190Z,28.00
2018-07-26T18:53:55.955Z,27.90
2018-07-26T18:58:50.566Z,27.80
2018-07-26T19:03:45.189Z,27.60
2018-07-26T19:08:39.800Z,27.50
2018-07-26T19:13:34.622Z,27.30
2018-07-26T19:18:29.250Z,27.20
2018-07-26T19:23:23.807Z,27.00
2018-07-26T19:28:18.369Z,26.90
2018-07-26T19:38:07.273Z,26.70
2018-07-26T19:43:01.830Z,26.50
2018-07-26T19:47:56.604Z,26.50
2018-07-26T19:57:45.687Z,26.30
2018-07-26T20:02:40.444Z,26.30
2018-07-26T20:07:34.981Z,26.30
2018-07-26T20:12:29.657Z,26.20
2018-07-26T20:17:24.425Z,26.10
2018-07-26T20:22:19.118Z,26.00
2018-07-26T20:27:13.753Z,25.90
2018-07-26T20:32:08.306Z,25.70
2018-07-26T20:37:02.913Z,25.70
2018-07-26T20:41:57.569Z,25.50
2018-07-26T20:51:46.476Z,25.40
2018-07-26T20:56:41.042Z,25.20
2018-07-26T21:01:35.637Z,25.10
2018-07-26T21:06:30.328Z,25.00
2018-07-26T21:16:19.271Z,24.90
2018-07-26T21:21:13.839Z,24.90
2018-07-26T21:26:08.377Z,24.90
2018-07-26T21:31:02.960Z,24.80
2018-07-26T21:35:57.560Z,24.70
2018-07-26T21:40:52.130Z,24.60
2018-07-26T21:45:47.157Z,24.60
2018-07-26T21:50:41.734Z,24.60
2018-07-26T21:55:36.366Z,24.50
2018-07-26T22:00:39.693Z,24.50
2018-07-26T22:05:34.246Z,24.40
2018-07-26T22:10:28.901Z,24.30
2018-07-26T22:15:23.525Z,24.30
2018-07-26T22:20:18.126Z,24.20
2018-07-26T22:25:12.708Z,24.10
2018-07-26T22:30:07.374Z,24.00
2018-07-26T22:35:01.921Z,23.90
2018-07-26T22:39:56.561Z,23.90
2018-07-26T22:44:51.096Z,23.80
2018-07-26T22:49:45.644Z,23.70
2018-07-26T22:54:40.233Z,23.80
2018-07-26T23:04:29.015Z,23.50
2018-07-26T23:09:23.568Z,23.40
2018-07-26T23:14:18.095Z,23.30
2018-07-26T23:19:12.641Z,23.10
2018-07-26T23:24:07.254Z,22.90
2018-07-26T23:29:01.819Z,22.80
2018-07-26T23:33:56.461Z,22.70
2018-07-26T23:38:50.990Z,22.50
2018-07-26T23:48:39.783Z,22.40
